createdAt,value
2023-02-25T00:01:36.292Z,8.03
2023-02-25T00:04:03.236Z,8.13
2023-02-25T00:06:30.034Z,8.12
2023-02-25T00:08:56.906Z,8.14
2023-02-25T00:11:26.066Z,8.19
2023-02-25T00:13:53.201Z,8.12
2023-02-25T00:16:22.608Z,8.23
2023-02-25T00:18:55.581Z,8.24
2023-02-25T00:21:23.503Z,8.23
2023-02-25T00:23:53.570Z,8.23
2023-02-25T00:26:21.058Z,7.97
2023-02-25T00:28:48.418Z,8.10
2023-02-25T00:31:19.896Z,8.17
2023-02-25T00:33:47.500Z,8.19
2023-02-25T00:36:26.790Z,8.12
2023-02-25T00:38:57.198Z,8.13
2023-02-25T00:41:28.711Z,8.19
2023-02-25T00:43:58.907Z,8.20
2023-02-25T00:46:27.971Z,8.17
2023-02-25T00:48:54.832Z,8.19
2023-02-25T00:51:26.830Z,8.04
2023-02-25T00:53:56.404Z,8.09
2023-02-25T00:56:25.392Z,8.07
2023-02-25T00:58:53.250Z,8.15
2023-02-25T01:01:27.239Z,8.19
2023-02-25T01:03:56.539Z,8.18
2023-02-25T01:06:29.037Z,8.16
2023-02-25T01:08:57.043Z,8.12
2023-02-25T01:11:29.256Z,8.15
2023-02-25T01:14:03.092Z,8.16
2023-02-25T01:16:31.889Z,8.14
2023-02-25T01:19:05.842Z,8.11
2023-02-25T01:21:42.792Z,7.94
2023-02-25T01:24:23.228Z,8.02
2023-02-25T01:26:53.785Z,8.03
2023-02-25T01:29:30.361Z,8.01
2023-02-25T01:32:00.744Z,7.99
2023-02-25T01:34:29.086Z,7.98
2023-02-25T01:36:56.713Z,7.89
2023-02-25T01:39:26.542Z,7.99
2023-02-25T01:41:56.756Z,7.82
2023-02-25T01:44:31.547Z,7.87
2023-02-25T01:46:58.810Z,7.80
2023-02-25T01:49:35.810Z,7.84
2023-02-25T01:52:21.364Z,7.62
2023-02-25T01:54:54.229Z,7.64
2023-02-25T01:57:21.808Z,7.73
2023-02-25T01:59:50.503Z,7.78
2023-02-25T02:02:21.588Z,7.71
2023-02-25T02:04:52.407Z,7.71
2023-02-25T02:07:20.955Z,7.66
2023-02-25T02:09:57.182Z,7.65
2023-02-25T02:12:28.797Z,7.55
2023-02-25T02:14:57.721Z,7.75
2023-02-25T02:17:38.556Z,7.71
2023-02-25T02:20:13.298Z,7.75
2023-02-25T02:22:53.124Z,7.71
2023-02-25T02:25:34.859Z,7.71
2023-02-25T02:28:38.073Z,7.56
2023-02-25T02:31:35.980Z,7.66
2023-02-25T02:34:46.835Z,7.69
2023-02-25T02:37:19.911Z,7.71
2023-02-25T02:40:15.229Z,7.70
2023-02-25T02:43:11.866Z,7.62
2023-02-25T02:46:00.113Z,7.59
2023-02-25T02:48:36.732Z,7.63
2023-02-25T02:51:12.381Z,7.59
2023-02-25T02:53:48.215Z,7.55
2023-02-25T02:56:18.782Z,7.52
2023-02-25T02:58:53.007Z,7.52
2023-02-25T03:01:29.806Z,7.50
2023-02-25T03:04:03.832Z,7.60
2023-02-25T03:06:34.912Z,7.56
2023-02-25T03:09:16.747Z,7.60
2023-02-25T03:11:44.041Z,7.59
2023-02-25T03:14:12.926Z,7.64
2023-02-25T03:17:43.201Z,7.65
2023-02-25T03:20:22.630Z,7.70
2023-02-25T03:22:53.743Z,7.71
2023-02-25T03:25:31.695Z,7.66
2023-02-25T03:28:32.985Z,7.71
2023-02-25T03:31:22.386Z,7.82
2023-02-25T03:33:56.781Z,7.78
2023-02-25T03:36:32.610Z,7.66
2023-02-25T03:39:25.116Z,7.80
2023-02-25T03:41:55.745Z,7.81
2023-02-25T03:44:45.498Z,7.78
2023-02-25T03:47:14.249Z,7.69
2023-02-25T03:50:06.945Z,7.59
2023-02-25T03:52:33.837Z,7.61
2023-02-25T03:55:02.091Z,7.62
2023-02-25T03:57:41.070Z,7.55
2023-02-25T04:00:19.079Z,7.61
2023-02-25T04:02:47.460Z,7.56
2023-02-25T04:05:16.300Z,7.43
2023-02-25T04:07:43.202Z,7.57
2023-02-25T04:10:13.159Z,7.61
2023-02-25T04:12:40.080Z,7.34
2023-02-25T04:15:08.585Z,7.55
2023-02-25T04:17:37.141Z,7.50
2023-02-25T04:20:05.552Z,7.41
2023-02-25T04:22:33.514Z,7.44
2023-02-25T04:25:00.606Z,7.46
2023-02-25T04:27:27.444Z,7.46
2023-02-25T04:29:54.297Z,7.47
2023-02-25T04:32:21.234Z,7.45
2023-02-25T04:34:48.181Z,7.40
2023-02-25T04:37:15.118Z,7.47
2023-02-25T04:39:42.055Z,7.33
2023-02-25T04:42:09.014Z,7.46
2023-02-25T04:44:36.025Z,7.42
2023-02-25T04:47:02.918Z,7.36
2023-02-25T04:49:29.735Z,7.28
2023-02-25T04:51:56.787Z,7.24
2023-02-25T04:54:23.639Z,7.35
2023-02-25T04:56:50.468Z,7.05
2023-02-25T04:59:17.446Z,7.33
2023-02-25T05:01:44.343Z,7.36
2023-02-25T05:04:11.308Z,7.18
2023-02-25T05:06:39.232Z,7.38
2023-02-25T05:09:06.482Z,7.30
2023-02-25T05:11:34.207Z,7.26
2023-02-25T05:14:01.041Z,7.28
2023-02-25T05:16:28.073Z,7.24
2023-02-25T05:18:55.470Z,7.22
2023-02-25T05:21:25.692Z,7.16
2023-02-25T05:23:53.956Z,7.14
2023-02-25T05:26:24.128Z,7.14
2023-02-25T05:28:58.530Z,7.10
2023-02-25T05:31:26.108Z,7.10
2023-02-25T05:33:53.205Z,7.14
2023-02-25T05:36:20.603Z,7.13
2023-02-25T05:38:48.051Z,7.10
2023-02-25T05:41:15.988Z,7.10
2023-02-25T05:43:45.165Z,7.05
2023-02-25T05:46:13.930Z,7.17
2023-02-25T05:48:45.937Z,7.18
2023-02-25T05:51:17.030Z,7.18
2023-02-25T05:53:44.834Z,7.20
2023-02-25T05:56:15.189Z,7.29
2023-02-25T05:58:42.409Z,7.29
2023-02-25T06:01:15.892Z,7.23
2023-02-25T06:03:45.255Z,7.25
2023-02-25T06:06:13.449Z,7.26
2023-02-25T06:08:42.016Z,7.24
2023-02-25T06:11:09.173Z,7.10
2023-02-25T06:13:36.070Z,6.97
2023-02-25T06:16:05.068Z,7.10
2023-02-25T06:18:36.709Z,7.09
2023-02-25T06:21:10.951Z,7.17
2023-02-25T06:23:39.753Z,7.21
2023-02-25T06:26:08.427Z,7.20
2023-02-25T06:28:36.137Z,7.18
2023-02-25T06:31:03.263Z,7.23
2023-02-25T06:33:31.542Z,7.26
2023-02-25T06:35:59.022Z,7.28
2023-02-25T06:38:26.130Z,7.25
2023-02-25T06:40:53.056Z,7.36
2023-02-25T06:43:19.971Z,7.30
2023-02-25T06:45:46.854Z,7.32
2023-02-25T06:48:13.751Z,7.22
2023-02-25T06:50:41.727Z,7.23
2023-02-25T06:53:09.309Z,7.17
2023-02-25T06:55:39.445Z,7.21
2023-02-25T06:58:06.667Z,7.14
2023-02-25T07:00:33.628Z,7.01
2023-02-25T07:03:03.030Z,7.04
2023-02-25T07:05:29.978Z,7.04
2023-02-25T07:07:56.968Z,6.83
2023-02-25T07:10:23.845Z,6.92
2023-02-25T07:12:52.867Z,7.07
2023-02-25T07:15:21.616Z,7.02
2023-02-25T07:17:48.783Z,7.14
2023-02-25T07:20:16.044Z,7.21
2023-02-25T07:22:42.992Z,7.17
2023-02-25T07:25:13.454Z,7.08
2023-02-25T07:27:44.987Z,7.13
2023-02-25T07:30:13.301Z,7.14
2023-02-25T07:32:41.747Z,7.03
2023-02-25T07:35:10.375Z,6.87
2023-02-25T07:37:37.758Z,6.94
2023-02-25T07:40:16.994Z,6.95
2023-02-25T07:42:43.991Z,6.85
2023-02-25T07:45:11.478Z,6.92
2023-02-25T07:47:39.129Z,6.67
2023-02-25T07:50:10.276Z,6.76
2023-02-25T07:52:38.712Z,6.75
2023-02-25T07:55:07.206Z,6.73
2023-02-25T07:57:35.677Z,6.75
2023-02-25T08:00:04.929Z,6.76
2023-02-25T08:02:31.786Z,6.76
2023-02-25T08:05:00.486Z,6.72
2023-02-25T08:07:28.240Z,6.72
2023-02-25T08:09:55.211Z,6.74
2023-02-25T08:12:22.152Z,6.66
2023-02-25T08:14:49.056Z,6.64
2023-02-25T08:17:15.956Z,6.70
2023-02-25T08:19:43.429Z,6.75
2023-02-25T08:22:11.907Z,6.83
2023-02-25T08:24:39.705Z,6.66
2023-02-25T08:27:08.647Z,6.85
2023-02-25T08:29:38.627Z,6.74
2023-02-25T08:32:09.226Z,6.53
2023-02-25T08:34:36.553Z,6.58
2023-02-25T08:37:03.448Z,6.69
2023-02-25T08:39:31.127Z,6.67
2023-02-25T08:41:57.967Z,6.65
2023-02-25T08:44:24.809Z,6.74
2023-02-25T08:46:51.647Z,6.72
2023-02-25T08:49:18.451Z,6.76
2023-02-25T08:51:45.295Z,6.73
2023-02-25T08:54:14.146Z,6.80
2023-02-25T08:56:44.157Z,6.89
2023-02-25T08:59:14.138Z,6.89
2023-02-25T09:01:48.290Z,6.90
2023-02-25T09:04:19.384Z,6.89
2023-02-25T09:06:49.538Z,6.92
2023-02-25T09:09:19.019Z,7.05
2023-02-25T09:11:47.848Z,7.00
2023-02-25T09:14:15.438Z,6.91
2023-02-25T09:16:42.412Z,6.94
2023-02-25T09:19:10.783Z,6.97
2023-02-25T09:21:40.369Z,7.01
2023-02-25T09:24:08.499Z,7.00
2023-02-25T09:26:35.386Z,6.94
2023-02-25T09:29:04.828Z,6.93
2023-02-25T09:31:33.639Z,6.94
2023-02-25T09:34:04.626Z,6.91
2023-02-25T09:36:32.325Z,7.01
2023-02-25T09:38:59.545Z,6.90
2023-02-25T09:42:00.392Z,7.01
2023-02-25T09:44:31.788Z,6.99
2023-02-25T09:47:20.985Z,6.98
2023-02-25T09:50:14.788Z,7.07
2023-02-25T09:53:40.292Z,7.10
2023-02-25T09:56:08.396Z,7.14
2023-02-25T09:58:46.011Z,7.21
2023-02-25T10:01:36.253Z,7.26
2023-02-25T10:04:17.160Z,7.08
2023-02-25T10:06:48.642Z,7.33
2023-02-25T10:09:24.895Z,7.20
2023-02-25T10:12:04.789Z,7.31
2023-02-25T10:14:52.880Z,7.36
2023-02-25T10:17:29.936Z,7.39
2023-02-25T10:20:30.920Z,7.38
2023-02-25T10:23:09.302Z,7.40
2023-02-25T10:25:51.350Z,7.41
2023-02-25T10:28:20.205Z,7.51
2023-02-25T10:30:52.489Z,7.51
2023-02-25T10:33:25.897Z,7.51
2023-02-25T10:36:03.153Z,7.37
2023-02-25T10:38:30.065Z,7.41
2023-02-25T10:40:59.180Z,7.34
2023-02-25T10:43:27.504Z,7.48
2023-02-25T10:46:09.648Z,7.55
2023-02-25T10:48:38.300Z,7.69
2023-02-25T10:51:12.656Z,7.58
2023-02-25T10:53:56.895Z,7.36
2023-02-25T10:56:45.907Z,7.46
2023-02-25T10:59:38.463Z,7.49
2023-02-25T11:02:32.564Z,7.45
2023-02-25T11:04:59.614Z,7.43
2023-02-25T11:07:40.000Z,7.42
2023-02-25T11:10:21.370Z,7.32
2023-02-25T11:12:57.830Z,7.36
2023-02-25T11:15:44.876Z,7.40
2023-02-25T11:18:28.063Z,7.42
2023-02-25T11:20:58.869Z,7.45
2023-02-25T11:23:38.689Z,7.49
2023-02-25T11:26:07.075Z,7.61
2023-02-25T11:28:40.254Z,7.58
2023-02-25T11:31:34.399Z,7.43
2023-02-25T11:34:06.588Z,7.32
2023-02-25T11:36:38.969Z,7.51
2023-02-25T11:39:22.012Z,7.52
2023-02-25T11:42:00.350Z,7.47
2023-02-25T11:44:42.026Z,7.61
2023-02-25T11:47:38.496Z,7.56
2023-02-25T11:50:20.140Z,7.60
2023-02-25T11:53:08.150Z,7.65
2023-02-25T11:56:29.032Z,7.67
2023-02-25T11:59:01.641Z,7.69
2023-02-25T12:02:00.956Z,7.64
2023-02-25T12:05:03.262Z,7.61
2023-02-25T12:08:05.077Z,7.57
2023-02-25T12:11:05.150Z,7.60
2023-02-25T12:13:55.977Z,7.53
2023-02-25T12:17:06.267Z,7.64
2023-02-25T12:20:22.955Z,7.48
2023-02-25T12:23:14.944Z,7.47
2023-02-25T12:26:18.507Z,7.46
2023-02-25T12:29:11.830Z,7.37
2023-02-25T12:32:35.596Z,7.51
2023-02-25T12:36:03.944Z,7.32
2023-02-25T12:38:47.607Z,7.54
2023-02-25T12:41:37.232Z,7.56
2023-02-25T12:44:45.659Z,7.60
2023-02-25T12:48:04.017Z,7.54
2023-02-25T12:50:57.374Z,7.55
2023-02-25T12:54:00.953Z,7.49
2023-02-25T12:56:54.251Z,7.48
2023-02-25T12:59:53.671Z,7.38
2023-02-25T13:02:58.370Z,7.54
2023-02-25T13:06:14.855Z,7.49
2023-02-25T13:09:04.833Z,7.43
2023-02-25T13:12:11.377Z,7.40
2023-02-25T13:15:23.426Z,7.50
2023-02-25T13:18:22.559Z,7.36
2023-02-25T13:21:19.714Z,7.30
2023-02-25T13:24:06.379Z,7.16
2023-02-25T13:26:59.745Z,7.18
2023-02-25T13:30:04.986Z,7.08
2023-02-25T13:33:05.900Z,6.90
2023-02-25T13:36:07.977Z,7.08
2023-02-25T13:39:14.718Z,7.05
2023-02-25T13:42:12.543Z,6.96
2023-02-25T13:45:31.829Z,7.02
2023-02-25T13:48:35.178Z,7.03
2023-02-25T13:51:46.118Z,7.07
2023-02-25T13:54:46.638Z,7.06
2023-02-25T13:57:50.394Z,6.94
2023-02-25T14:00:51.466Z,7.04
2023-02-25T14:04:09.181Z,7.05
2023-02-25T14:07:00.689Z,7.04
2023-02-25T14:09:43.034Z,7.12
2023-02-25T14:12:46.554Z,7.15
2023-02-25T14:15:59.859Z,7.17
2023-02-25T14:19:02.134Z,7.24
2023-02-25T14:22:00.488Z,7.28
2023-02-25T14:24:30.239Z,7.30
2023-02-25T14:27:08.690Z,7.32
2023-02-25T14:30:25.820Z,7.30
2023-02-25T14:33:28.982Z,7.34
2023-02-25T14:36:31.885Z,7.38
2023-02-25T14:39:27.539Z,7.38
2023-02-25T14:42:20.143Z,7.48
2023-02-25T14:45:14.108Z,7.52
2023-02-25T14:48:41.140Z,7.48
2023-02-25T14:52:11.727Z,7.61
2023-02-25T14:54:57.064Z,7.66
2023-02-25T14:57:51.515Z,7.68
2023-02-25T15:00:47.590Z,7.65
2023-02-25T15:03:30.845Z,7.82
2023-02-25T15:06:22.396Z,7.68
2023-02-25T15:09:18.522Z,7.71
2023-02-25T15:12:16.698Z,7.77
2023-02-25T15:15:19.986Z,7.67
2023-02-25T15:18:02.646Z,7.68
2023-02-25T15:20:29.314Z,7.67
2023-02-25T15:23:17.707Z,7.59
2023-02-25T15:26:06.929Z,7.65
2023-02-25T15:28:37.166Z,7.58
2023-02-25T15:31:30.316Z,7.43
2023-02-25T15:34:21.731Z,7.60
2023-02-25T15:36:51.825Z,7.59
2023-02-25T15:39:40.582Z,7.58
2023-02-25T15:42:11.983Z,7.57
2023-02-25T15:44:44.373Z,7.44
2023-02-25T15:47:29.569Z,7.41
2023-02-25T15:49:57.955Z,7.48
2023-02-25T15:52:55.506Z,7.57
2023-02-25T15:55:46.020Z,7.56
2023-02-25T15:58:24.892Z,7.58
2023-02-25T16:01:02.512Z,7.56
2023-02-25T16:03:32.054Z,7.56
2023-02-25T16:06:05.449Z,7.58
2023-02-25T16:08:42.725Z,7.57
2023-02-25T16:11:33.599Z,7.57
2023-02-25T16:14:10.721Z,7.68
2023-02-25T16:16:47.058Z,7.60
2023-02-25T16:19:19.646Z,7.60
2023-02-25T16:21:52.806Z,7.37
2023-02-25T16:24:20.052Z,7.23
2023-02-25T16:27:12.708Z,6.89
2023-02-25T16:30:17.814Z,6.88
2023-02-25T16:33:45.012Z,6.93
2023-02-25T16:36:41.480Z,6.59
2023-02-25T16:39:24.936Z,6.53
2023-02-25T16:41:52.812Z,6.81
2023-02-25T16:44:25.903Z,6.79
2023-02-25T16:46:55.107Z,6.78
2023-02-25T16:49:38.990Z,6.87
2023-02-25T16:52:07.446Z,6.93
2023-02-25T16:54:38.196Z,7.02
2023-02-25T16:57:09.402Z,6.77
2023-02-25T16:59:38.617Z,7.00
2023-02-25T17:02:17.580Z,7.17
2023-02-25T17:04:54.429Z,7.12
2023-02-25T17:07:27.831Z,7.20
2023-02-25T17:10:00.768Z,7.21
2023-02-25T17:12:45.400Z,7.22
2023-02-25T17:15:20.282Z,7.23
2023-02-25T17:17:54.094Z,7.31
2023-02-25T17:20:24.777Z,7.38
2023-02-25T17:22:52.474Z,7.28
2023-02-25T17:25:20.540Z,7.37
2023-02-25T17:27:50.207Z,7.33
2023-02-25T17:30:47.885Z,7.35
2023-02-25T17:33:26.365Z,7.21
2023-02-25T17:35:58.807Z,7.15
2023-02-25T17:38:26.270Z,7.26
2023-02-25T17:40:55.256Z,7.32
2023-02-25T17:43:37.771Z,7.31
2023-02-25T17:46:36.041Z,7.36
2023-02-25T17:49:18.637Z,7.26
2023-02-25T17:51:46.482Z,6.86
2023-02-25T17:54:20.493Z,6.70
2023-02-25T17:57:00.227Z,6.22
2023-02-25T17:59:42.478Z,5.85
2023-02-25T18:02:34.193Z,5.86
2023-02-25T18:05:13.316Z,5.75
2023-02-25T18:07:42.583Z,5.60
2023-02-25T18:10:33.273Z,5.57
2023-02-25T18:13:02.932Z,5.59
2023-02-25T18:15:34.319Z,5.54
2023-02-25T18:18:05.301Z,5.45
2023-02-25T18:20:42.222Z,5.45
2023-02-25T18:23:24.802Z,5.48
2023-02-25T18:26:13.072Z,5.47
2023-02-25T18:28:40.060Z,5.49
2023-02-25T18:31:08.139Z,5.50
2023-02-25T18:33:35.268Z,5.55
2023-02-25T18:36:06.175Z,5.57
2023-02-25T18:38:33.818Z,5.55
2023-02-25T18:41:02.765Z,5.22
2023-02-25T18:43:34.313Z,5.44
2023-02-25T18:46:01.765Z,5.42
2023-02-25T18:48:28.627Z,5.54
2023-02-25T18:50:56.452Z,5.56
2023-02-25T18:53:25.332Z,5.58
2023-02-25T18:55:53.837Z,5.53
2023-02-25T18:58:21.836Z,5.45
2023-02-25T19:00:53.568Z,5.43
2023-02-25T19:03:32.872Z,5.41
2023-02-25T19:06:00.459Z,5.40
2023-02-25T19:08:27.319Z,5.40
2023-02-25T19:10:54.553Z,5.35
2023-02-25T19:13:43.202Z,5.18
2023-02-25T19:16:10.276Z,5.29
2023-02-25T19:18:37.673Z,5.36
2023-02-25T19:21:06.827Z,5.22
2023-02-25T19:23:34.039Z,5.20
2023-02-25T19:26:02.234Z,5.30
2023-02-25T19:28:29.348Z,5.36
2023-02-25T19:30:56.180Z,5.33
2023-02-25T19:33:23.144Z,5.19
2023-02-25T19:35:50.191Z,5.21
2023-02-25T19:38:19.349Z,5.09
2023-02-25T19:40:47.563Z,5.21
2023-02-25T19:43:15.359Z,5.25
2023-02-25T19:45:42.757Z,5.30
2023-02-25T19:48:10.673Z,5.20
2023-02-25T19:50:41.299Z,5.16
2023-02-25T19:53:09.094Z,5.13
2023-02-25T19:55:35.981Z,5.11
2023-02-25T19:58:03.029Z,4.99
2023-02-25T20:00:29.863Z,5.23
2023-02-25T20:02:57.080Z,5.22
2023-02-25T20:05:24.757Z,5.14
2023-02-25T20:07:52.157Z,5.08
2023-02-25T20:10:19.503Z,4.96
2023-02-25T20:12:48.171Z,5.06
2023-02-25T20:15:15.971Z,5.11
2023-02-25T20:17:45.327Z,5.04
2023-02-25T20:20:15.477Z,4.99
2023-02-25T20:22:42.880Z,5.00
2023-02-25T20:25:11.005Z,5.01
2023-02-25T20:27:39.862Z,5.02
2023-02-25T20:30:08.134Z,4.81
2023-02-25T20:32:35.173Z,4.94
2023-02-25T20:35:02.926Z,4.98
2023-02-25T20:37:37.121Z,4.93
2023-02-25T20:40:08.048Z,4.92
2023-02-25T20:42:35.406Z,4.88
2023-02-25T20:45:02.691Z,4.91
2023-02-25T20:47:37.248Z,4.83
2023-02-25T20:50:07.625Z,4.80
2023-02-25T20:52:34.625Z,4.89
2023-02-25T20:55:01.436Z,4.98
2023-02-25T20:57:28.623Z,5.09
2023-02-25T20:59:55.564Z,5.11
2023-02-25T21:02:23.128Z,5.18
2023-02-25T21:04:50.630Z,5.17
2023-02-25T21:07:17.479Z,5.17
2023-02-25T21:09:44.517Z,4.97
2023-02-25T21:12:11.677Z,5.12
2023-02-25T21:14:38.505Z,5.20
2023-02-25T21:17:09.279Z,5.23
2023-02-25T21:19:38.605Z,5.18
2023-02-25T21:22:07.212Z,5.03
2023-02-25T21:24:34.662Z,5.17
2023-02-25T21:27:02.505Z,4.97
2023-02-25T21:29:29.861Z,5.00
2023-02-25T21:31:56.838Z,4.92
2023-02-25T21:34:23.763Z,4.91
2023-02-25T21:36:50.665Z,5.13
2023-02-25T21:39:18.056Z,5.07
2023-02-25T21:41:45.119Z,5.13
2023-02-25T21:44:12.601Z,5.17
2023-02-25T21:46:40.350Z,4.93
2023-02-25T21:49:07.434Z,5.16
2023-02-25T21:51:34.292Z,5.11
2023-02-25T21:54:01.734Z,5.09
2023-02-25T21:56:29.943Z,5.04
2023-02-25T21:59:00.194Z,4.97
2023-02-25T22:01:31.081Z,5.00
2023-02-25T22:03:58.506Z,4.97
2023-02-25T22:06:27.824Z,4.92
2023-02-25T22:08:55.889Z,4.92
2023-02-25T22:11:29.433Z,4.79
2023-02-25T22:13:58.520Z,4.48
2023-02-25T22:16:26.438Z,4.55
2023-02-25T22:18:53.612Z,4.59
2023-02-25T22:21:27.762Z,4.54
2023-02-25T22:23:57.783Z,4.50
2023-02-25T22:26:31.736Z,4.55
2023-02-25T22:29:04.029Z,4.55
2023-02-25T22:31:32.531Z,4.55
2023-02-25T22:33:59.803Z,4.59
2023-02-25T22:36:27.032Z,4.52
2023-02-25T22:38:54.563Z,4.51
2023-02-25T22:41:27.931Z,4.44
2023-02-25T22:43:55.291Z,4.40
2023-02-25T22:46:27.180Z,4.37
2023-02-25T22:48:54.894Z,4.30
2023-02-25T22:51:36.176Z,4.24
2023-02-25T22:54:04.759Z,4.16
2023-02-25T22:56:31.895Z,4.07
2023-02-25T22:58:58.838Z,4.06
2023-02-25T23:01:26.824Z,4.03
2023-02-25T23:03:55.936Z,3.81
2023-02-25T23:06:40.819Z,4.01
2023-02-25T23:09:09.708Z,4.07
2023-02-25T23:11:36.559Z,3.97
2023-02-25T23:14:05.021Z,4.03
2023-02-25T23:16:40.297Z,3.98
2023-02-25T23:19:11.069Z,3.96
2023-02-25T23:21:38.769Z,3.97
2023-02-25T23:24:07.756Z,3.88
2023-02-25T23:26:40.237Z,3.99
2023-02-25T23:29:10.548Z,3.97
2023-02-25T23:31:43.415Z,4.00
2023-02-25T23:34:15.183Z,3.96
2023-02-25T23:36:43.996Z,3.98
2023-02-25T23:39:13.111Z,3.96
2023-02-25T23:41:40.311Z,3.92
2023-02-25T23:44:09.119Z,3.73
2023-02-25T23:46:36.724Z,3.98
2023-02-25T23:49:07.155Z,3.93
2023-02-25T23:51:36.051Z,3.85
2023-02-25T23:54:06.129Z,3.83
2023-02-25T23:56:34.322Z,3.85
2023-02-25T23:59:01.420Z,3.81
